Malott, WA

4:27 PM PST on February 01, 2015 (GMT -0800)
Silver Spur Resort | Change Station
CLOSE
Current Station
Personal Weather Station
Location: Brewster, WA
Elevation: 1476 ft
Nearby Weather Stations

Elev 1476 ft 48.17 °N, 119.73 °W | Updated 1 minute ago

Overcast
Overcast
35.3 °F
Feels Like 35 °F
N
0.0
Wind Variable Wind from SSW
Gusts 0.0 mph

Today
High -- | Low -- °F
--% Chance of Precip.
Yesterday
High -- | Low -- °F
Precip. -- in
7:27 AM 4:58 PM
Waxing Gibbous, 96% visible
Pressure 30.08 in
Visibility 10.0 miles
Clouds Mostly Cloudy 1900 ft
Overcast 2700 ft
Windchill 35 °F
Dew Point 33 °F
Humidity 90%
Rainfall 0.07 in
Snow Depth Not available.
UV 0 out of 12
Pollen .40 out of 12
Air Quality Not available.
Flu Activity Not available.
METAR KOMK 012353Z AUTO 19005KT 10SM BKN019 OVC027 02/00 A3004 RMK AO2 SLP186 T00170000 10017 20000 55013

More Conditions Fewer Conditions

Pressure 30.08 in
Visibility 10.0 miles
Clouds Mostly Cloudy 1900 ft
Overcast 2700 ft
Windchill 35 °F
Dew Point 33 °F
Humidity 90%
Rainfall 0.07 in
Snow Depth Not available.
UV 0 out of 12
Pollen .40 out of 12
Air Quality Not available.
Flu Activity Not available.
METAR KOMK 012353Z AUTO 19005KT 10SM BKN019 OVC027 02/00 A3004 RMK AO2 SLP186 T00170000 10017 20000 55013

More Conditions Fewer Conditions

10-Day Weather Forecast

Almanac

Astronomy

Feb. 01, 2015 Rise Set
Actual Time
Civil Twilight
Nautical Twilight
Astronomical Twilight
Moon
Length of Visible Light
Length of Day
Tomorrow will be .
, % of the Moon is Illuminated

Today's Extremes

State Highs State Lows

Community

WunderPhotos

Upload Photos

1,792,624 photos uploaded!

WunderBlogs® & News

Nearby

Air Quality

  Air Quality AQ Index Pollutant
Not available.

Snow Depth

Station Depth Elevation

Earthquake Activity

City Distance Mag. Time & Date
Minimum magnitude displayed is 2.5.

Coastal Water Temperatures

Place Temperature

Nearby Weather Stations